sensor_id;sensor_type;location;lat;lon;timestamp;P1;durP1;ratioP1;P2;durP2;ratioP2
12719;SDS011;6424;48.520;11.228;2024-02-26T00:01:31;16.50;;;12.97;;
12719;SDS011;6424;48.520;11.228;2024-02-26T00:04:17;17.40;;;13.23;;
12719;SDS011;6424;48.520;11.228;2024-02-26T00:07:01;18.87;;;14.07;;
12719;SDS011;6424;48.520;11.228;2024-02-26T00:09:46;15.93;;;12.20;;
12719;SDS011;6424;48.520;11.228;2024-02-26T00:12:30;18.23;;;12.97;;
12719;SDS011;6424;48.520;11.228;2024-02-26T00:15:15;16.93;;;11.90;;
12719;SDS011;6424;48.520;11.228;2024-02-26T00:17:59;16.10;;;11.60;;
12719;SDS011;6424;48.520;11.228;2024-02-26T00:20:43;16.13;;;12.07;;
12719;SDS011;6424;48.520;11.228;2024-02-26T00:23:28;18.93;;;12.83;;
12719;SDS011;6424;48.520;11.228;2024-02-26T00:26:12;16.47;;;12.07;;
12719;SDS011;6424;48.520;11.228;2024-02-26T00:28:58;15.23;;;11.60;;
12719;SDS011;6424;48.520;11.228;2024-02-26T00:31:43;16.23;;;13.33;;
12719;SDS011;6424;48.520;11.228;2024-02-26T00:34:28;17.90;;;13.53;;
12719;SDS011;6424;48.520;11.228;2024-02-26T00:37:12;20.13;;;14.93;;
12719;SDS011;6424;48.520;11.228;2024-02-26T00:39:56;17.40;;;13.53;;
12719;SDS011;6424;48.520;11.228;2024-02-26T00:42:41;16.13;;;12.60;;
12719;SDS011;6424;48.520;11.228;2024-02-26T00:45:29;18.77;;;13.07;;
12719;SDS011;6424;48.520;11.228;2024-02-26T00:48:15;18.03;;;12.83;;
12719;SDS011;6424;48.520;11.228;2024-02-26T00:51:00;17.03;;;12.90;;
12719;SDS011;6424;48.520;11.228;2024-02-26T00:53:45;19.73;;;13.93;;
12719;SDS011;6424;48.520;11.228;2024-02-26T00:56:29;21.43;;;14.67;;
12719;SDS011;6424;48.520;11.228;2024-02-26T00:59:13;20.43;;;14.73;;
12719;SDS011;6424;48.520;11.228;2024-02-26T01:01:57;20.17;;;15.00;;
12719;SDS011;6424;48.520;11.228;2024-02-26T01:04:43;18.30;;;12.97;;
12719;SDS011;6424;48.520;11.228;2024-02-26T01:07:27;20.03;;;13.63;;
12719;SDS011;6424;48.520;11.228;2024-02-26T01:10:11;17.53;;;13.10;;
12719;SDS011;6424;48.520;11.228;2024-02-26T01:12:56;17.20;;;13.17;;
12719;SDS011;6424;48.520;11.228;2024-02-26T01:15:41;18.93;;;12.67;;
12719;SDS011;6424;48.520;11.228;2024-02-26T01:18:27;17.43;;;12.50;;
12719;SDS011;6424;48.520;11.228;2024-02-26T01:21:12;16.57;;;12.20;;
12719;SDS011;6424;48.520;11.228;2024-02-26T01:23:57;16.00;;;12.07;;
12719;SDS011;6424;48.520;11.228;2024-02-26T01:26:41;17.83;;;13.07;;
12719;SDS011;6424;48.520;11.228;2024-02-26T01:29:25;14.43;;;12.00;;
12719;SDS011;6424;48.520;11.228;2024-02-26T01:32:09;15.17;;;11.30;;
12719;SDS011;6424;48.520;11.228;2024-02-26T01:34:54;17.23;;;12.30;;
12719;SDS011;6424;48.520;11.228;2024-02-26T01:37:39;18.77;;;13.17;;
12719;SDS011;6424;48.520;11.228;2024-02-26T01:40:26;16.93;;;12.87;;
12719;SDS011;6424;48.520;11.228;2024-02-26T01:43:10;16.13;;;12.10;;
12719;SDS011;6424;48.520;11.228;2024-02-26T01:45:55;15.90;;;12.03;;
12719;SDS011;6424;48.520;11.228;2024-02-26T01:48:43;15.23;;;12.57;;
12719;SDS011;6424;48.520;11.228;2024-02-26T01:51:29;17.07;;;12.00;;
12719;SDS011;6424;48.520;11.228;2024-02-26T01:54:16;13.77;;;11.00;;
12719;SDS011;6424;48.520;11.228;2024-02-26T01:57:00;12.83;;;10.50;;
12719;SDS011;6424;48.520;11.228;2024-02-26T01:59:45;17.20;;;12.20;;
12719;SDS011;6424;48.520;11.228;2024-02-26T02:02:30;18.00;;;12.23;;
12719;SDS011;6424;48.520;11.228;2024-02-26T02:05:15;15.77;;;11.87;;
12719;SDS011;6424;48.520;11.228;2024-02-26T02:08:03;17.30;;;12.17;;
12719;SDS011;6424;48.520;11.228;2024-02-26T02:10:49;17.60;;;12.93;;
12719;SDS011;6424;48.520;11.228;2024-02-26T02:13:34;17.90;;;12.93;;
12719;SDS011;6424;48.520;11.228;2024-02-26T02:16:18;17.93;;;12.00;;
12719;SDS011;6424;48.520;11.228;2024-02-26T02:19:02;17.53;;;12.20;;
12719;SDS011;6424;48.520;11.228;2024-02-26T02:21:46;20.13;;;13.93;;
12719;SDS011;6424;48.520;11.228;2024-02-26T02:24:30;18.43;;;13.07;;
12719;SDS011;6424;48.520;11.228;2024-02-26T02:27:14;15.43;;;11.93;;
12719;SDS011;6424;48.520;11.228;2024-02-26T02:29:59;15.40;;;11.87;;
12719;SDS011;6424;48.520;11.228;2024-02-26T02:32:44;16.17;;;11.97;;
12719;SDS011;6424;48.520;11.228;2024-02-26T02:35:29;16.13;;;11.83;;
12719;SDS011;6424;48.520;11.228;2024-02-26T02:38:13;17.33;;;11.83;;
12719;SDS011;6424;48.520;11.228;2024-02-26T02:40:57;18.70;;;11.57;;
12719;SDS011;6424;48.520;11.228;2024-02-26T02:43:41;16.67;;;12.03;;
12719;SDS011;6424;48.520;11.228;2024-02-26T02:46:25;16.50;;;12.10;;
12719;SDS011;6424;48.520;11.228;2024-02-26T02:49:10;17.07;;;11.40;;
12719;SDS011;6424;48.520;11.228;2024-02-26T02:51:54;13.83;;;11.57;;
12719;SDS011;6424;48.520;11.228;2024-02-26T02:54:41;16.33;;;11.43;;
12719;SDS011;6424;48.520;11.228;2024-02-26T02:57:26;14.67;;;10.60;;
12719;SDS011;6424;48.520;11.228;2024-02-26T03:00:10;16.70;;;12.23;;
12719;SDS011;6424;48.520;11.228;2024-02-26T03:02:56;15.93;;;11.20;;
12719;SDS011;6424;48.520;11.228;2024-02-26T03:05:40;15.07;;;11.63;;
12719;SDS011;6424;48.520;11.228;2024-02-26T03:08:25;14.17;;;10.83;;
12719;SDS011;6424;48.520;11.228;2024-02-26T03:11:12;15.00;;;10.70;;
12719;SDS011;6424;48.520;11.228;2024-02-26T03:13:58;14.47;;;10.50;;
12719;SDS011;6424;48.520;11.228;2024-02-26T03:16:43;14.23;;;10.33;;
12719;SDS011;6424;48.520;11.228;2024-02-26T03:19:27;11.97;;;9.50;;
12719;SDS011;6424;48.520;11.228;2024-02-26T03:22:11;12.57;;;10.53;;
12719;SDS011;6424;48.520;11.228;2024-02-26T03:24:57;15.10;;;10.50;;
12719;SDS011;6424;48.520;11.228;2024-02-26T03:27:41;12.13;;;9.20;;
12719;SDS011;6424;48.520;11.228;2024-02-26T03:30:25;13.07;;;8.87;;
12719;SDS011;6424;48.520;11.228;2024-02-26T03:33:09;13.03;;;9.27;;
12719;SDS011;6424;48.520;11.228;2024-02-26T03:35:54;12.90;;;9.37;;
12719;SDS011;6424;48.520;11.228;2024-02-26T03:38:38;12.50;;;10.33;;
12719;SDS011;6424;48.520;11.228;2024-02-26T03:41:22;15.00;;;10.33;;
12719;SDS011;6424;48.520;11.228;2024-02-26T03:44:06;16.30;;;11.70;;
12719;SDS011;6424;48.520;11.228;2024-02-26T03:46:51;15.90;;;11.57;;
12719;SDS011;6424;48.520;11.228;2024-02-26T03:49:35;14.13;;;11.20;;
12719;SDS011;6424;48.520;11.228;2024-02-26T03:52:19;15.97;;;11.77;;
12719;SDS011;6424;48.520;11.228;2024-02-26T03:55:03;17.20;;;12.00;;
12719;SDS011;6424;48.520;11.228;2024-02-26T03:57:48;15.47;;;12.00;;
12719;SDS011;6424;48.520;11.228;2024-02-26T04:00:33;17.50;;;12.03;;
12719;SDS011;6424;48.520;11.228;2024-02-26T04:03:17;16.17;;;11.80;;
12719;SDS011;6424;48.520;11.228;2024-02-26T04:06:01;17.50;;;12.17;;
12719;SDS011;6424;48.520;11.228;2024-02-26T04:08:47;16.23;;;11.93;;
12719;SDS011;6424;48.520;11.228;2024-02-26T04:11:31;16.80;;;12.70;;
12719;SDS011;6424;48.520;11.228;2024-02-26T04:14:15;16.67;;;11.03;;
12719;SDS011;6424;48.520;11.228;2024-02-26T04:17:00;16.83;;;11.70;;
12719;SDS011;6424;48.520;11.228;2024-02-26T04:19:44;14.47;;;10.47;;
12719;SDS011;6424;48.520;11.228;2024-02-26T04:22:29;14.97;;;11.30;;
12719;SDS011;6424;48.520;11.228;2024-02-26T04:25:13;15.17;;;11.57;;
12719;SDS011;6424;48.520;11.228;2024-02-26T04:27:57;16.97;;;12.13;;
12719;SDS011;6424;48.520;11.228;2024-02-26T04:30:42;15.37;;;12.20;;
12719;SDS011;6424;48.520;11.228;2024-02-26T04:33:26;15.77;;;12.50;;
12719;SDS011;6424;48.520;11.228;2024-02-26T04:36:14;17.33;;;12.67;;
12719;SDS011;6424;48.520;11.228;2024-02-26T04:38:59;17.93;;;13.43;;
12719;SDS011;6424;48.520;11.228;2024-02-26T04:41:44;15.97;;;11.80;;
12719;SDS011;6424;48.520;11.228;2024-02-26T04:44:28;17.43;;;12.10;;
12719;SDS011;6424;48.520;11.228;2024-02-26T04:47:12;16.37;;;12.43;;
12719;SDS011;6424;48.520;11.228;2024-02-26T04:49:57;19.60;;;13.90;;
12719;SDS011;6424;48.520;11.228;2024-02-26T04:52:41;17.47;;;13.30;;
12719;SDS011;6424;48.520;11.228;2024-02-26T04:55:26;20.67;;;14.70;;
12719;SDS011;6424;48.520;11.228;2024-02-26T04:58:10;20.30;;;14.73;;
12719;SDS011;6424;48.520;11.228;2024-02-26T05:00:55;15.47;;;12.20;;
12719;SDS011;6424;48.520;11.228;2024-02-26T05:03:39;17.67;;;12.30;;
12719;SDS011;6424;48.520;11.228;2024-02-26T05:06:23;16.80;;;11.97;;
12719;SDS011;6424;48.520;11.228;2024-02-26T05:09:08;15.83;;;11.60;;
12719;SDS011;6424;48.520;11.228;2024-02-26T05:11:52;15.60;;;12.40;;
12719;SDS011;6424;48.520;11.228;2024-02-26T05:14:36;15.07;;;12.53;;
12719;SDS011;6424;48.520;11.228;2024-02-26T05:17:21;16.93;;;13.03;;
12719;SDS011;6424;48.520;11.228;2024-02-26T05:20:05;17.33;;;12.63;;
12719;SDS011;6424;48.520;11.228;2024-02-26T05:22:51;15.40;;;11.43;;
12719;SDS011;6424;48.520;11.228;2024-02-26T05:25:35;16.67;;;11.87;;
12719;SDS011;6424;48.520;11.228;2024-02-26T05:28:20;16.47;;;11.37;;
12719;SDS011;6424;48.520;11.228;2024-02-26T05:31:04;14.73;;;11.37;;
12719;SDS011;6424;48.520;11.228;2024-02-26T05:33:49;16.53;;;12.90;;
12719;SDS011;6424;48.520;11.228;2024-02-26T05:36:34;16.90;;;11.47;;
12719;SDS011;6424;48.520;11.228;2024-02-26T05:39:18;17.90;;;12.03;;
12719;SDS011;6424;48.520;11.228;2024-02-26T05:42:02;17.70;;;11.33;;
12719;SDS011;6424;48.520;11.228;2024-02-26T05:44:47;14.57;;;10.70;;
12719;SDS011;6424;48.520;11.228;2024-02-26T05:47:34;13.43;;;10.67;;
12719;SDS011;6424;48.520;11.228;2024-02-26T05:50:19;13.47;;;10.77;;
12719;SDS011;6424;48.520;11.228;2024-02-26T05:53:03;17.17;;;12.03;;
12719;SDS011;6424;48.520;11.228;2024-02-26T05:55:48;17.17;;;11.10;;
12719;SDS011;6424;48.520;11.228;2024-02-26T05:58:33;16.57;;;11.67;;
12719;SDS011;6424;48.520;11.228;2024-02-26T06:01:17;17.50;;;12.27;;
12719;SDS011;6424;48.520;11.228;2024-02-26T06:04:03;19.57;;;14.57;;
12719;SDS011;6424;48.520;11.228;2024-02-26T06:06:48;19.47;;;12.43;;
12719;SDS011;6424;48.520;11.228;2024-02-26T06:09:33;18.10;;;12.40;;
12719;SDS011;6424;48.520;11.228;2024-02-26T06:12:17;23.20;;;16.17;;
12719;SDS011;6424;48.520;11.228;2024-02-26T06:15:01;24.93;;;16.07;;
12719;SDS011;6424;48.520;11.228;2024-02-26T06:17:46;28.17;;;17.80;;
12719;SDS011;6424;48.520;11.228;2024-02-26T06:20:30;26.13;;;18.13;;
12719;SDS011;6424;48.520;11.228;2024-02-26T06:23:14;24.73;;;16.97;;
12719;SDS011;6424;48.520;11.228;2024-02-26T06:25:59;27.30;;;19.00;;
12719;SDS011;6424;48.520;11.228;2024-02-26T06:28:43;37.93;;;27.30;;
12719;SDS011;6424;48.520;11.228;2024-02-26T06:31:28;30.57;;;23.13;;
12719;SDS011;6424;48.520;11.228;2024-02-26T06:34:12;36.17;;;25.57;;
12719;SDS011;6424;48.520;11.228;2024-02-26T06:36:56;30.33;;;19.97;;
12719;SDS011;6424;48.520;11.228;2024-02-26T06:39:40;25.77;;;18.77;;
12719;SDS011;6424;48.520;11.228;2024-02-26T06:42:25;23.13;;;16.03;;
12719;SDS011;6424;48.520;11.228;2024-02-26T06:45:10;21.23;;;15.30;;
12719;SDS011;6424;48.520;11.228;2024-02-26T06:47:54;17.27;;;12.77;;
12719;SDS011;6424;48.520;11.228;2024-02-26T06:50:39;17.30;;;12.77;;
12719;SDS011;6424;48.520;11.228;2024-02-26T06:53:25;15.30;;;11.97;;
12719;SDS011;6424;48.520;11.228;2024-02-26T06:56:09;14.40;;;11.03;;
12719;SDS011;6424;48.520;11.228;2024-02-26T06:58:53;20.07;;;13.43;;
12719;SDS011;6424;48.520;11.228;2024-02-26T07:01:39;25.50;;;17.10;;
12719;SDS011;6424;48.520;11.228;2024-02-26T07:04:25;19.30;;;13.70;;
12719;SDS011;6424;48.520;11.228;2024-02-26T07:07:09;20.53;;;14.87;;
12719;SDS011;6424;48.520;11.228;2024-02-26T07:09:54;20.20;;;14.00;;
12719;SDS011;6424;48.520;11.228;2024-02-26T07:12:39;20.83;;;13.40;;
12719;SDS011;6424;48.520;11.228;2024-02-26T07:15:23;24.87;;;14.40;;
12719;SDS011;6424;48.520;11.228;2024-02-26T07:18:07;18.23;;;13.03;;
12719;SDS011;6424;48.520;11.228;2024-02-26T07:20:52;22.27;;;12.27;;
12719;SDS011;6424;48.520;11.228;2024-02-26T07:23:37;16.73;;;12.10;;
12719;SDS011;6424;48.520;11.228;2024-02-26T07:26:22;17.27;;;11.53;;
12719;SDS011;6424;48.520;11.228;2024-02-26T07:29:08;13.90;;;10.70;;
12719;SDS011;6424;48.520;11.228;2024-02-26T07:31:52;15.83;;;12.03;;
12719;SDS011;6424;48.520;11.228;2024-02-26T07:34:36;15.43;;;11.80;;
12719;SDS011;6424;48.520;11.228;2024-02-26T07:37:23;17.60;;;11.67;;
12719;SDS011;6424;48.520;11.228;2024-02-26T07:40:07;14.93;;;11.77;;
12719;SDS011;6424;48.520;11.228;2024-02-26T07:42:52;17.87;;;12.07;;
12719;SDS011;6424;48.520;11.228;2024-02-26T07:45:36;16.03;;;12.90;;
12719;SDS011;6424;48.520;11.228;2024-02-26T07:48:20;17.80;;;12.47;;
12719;SDS011;6424;48.520;11.228;2024-02-26T07:51:05;13.67;;;10.63;;
12719;SDS011;6424;48.520;11.228;2024-02-26T07:53:49;13.13;;;10.40;;
12719;SDS011;6424;48.520;11.228;2024-02-26T07:56:36;15.97;;;10.67;;
12719;SDS011;6424;48.520;11.228;2024-02-26T07:59:21;23.07;;;14.80;;
12719;SDS011;6424;48.520;11.228;2024-02-26T08:02:05;18.03;;;12.80;;
12719;SDS011;6424;48.520;11.228;2024-02-26T08:04:50;19.00;;;11.80;;
12719;SDS011;6424;48.520;11.228;2024-02-26T08:07:34;15.70;;;11.37;;
12719;SDS011;6424;48.520;11.228;2024-02-26T08:10:18;14.90;;;10.40;;
12719;SDS011;6424;48.520;11.228;2024-02-26T08:13:03;10.60;;;8.67;;
12719;SDS011;6424;48.520;11.228;2024-02-26T08:15:50;11.57;;;7.30;;
12719;SDS011;6424;48.520;11.228;2024-02-26T08:18:35;10.73;;;8.13;;
12719;SDS011;6424;48.520;11.228;2024-02-26T08:21:19;11.47;;;9.63;;
12719;SDS011;6424;48.520;11.228;2024-02-26T08:24:04;12.90;;;9.17;;
12719;SDS011;6424;48.520;11.228;2024-02-26T08:26:48;11.03;;;9.57;;
12719;SDS011;6424;48.520;11.228;2024-02-26T08:29:32;11.27;;;8.80;;
12719;SDS011;6424;48.520;11.228;2024-02-26T08:32:16;14.17;;;12.07;;
12719;SDS011;6424;48.520;11.228;2024-02-26T08:35:00;12.83;;;10.10;;
12719;SDS011;6424;48.520;11.228;2024-02-26T08:37:44;11.30;;;9.30;;
12719;SDS011;6424;48.520;11.228;2024-02-26T08:40:29;13.90;;;9.03;;
12719;SDS011;6424;48.520;11.228;2024-02-26T08:43:14;12.77;;;9.07;;
12719;SDS011;6424;48.520;11.228;2024-02-26T08:45:58;12.03;;;9.70;;
12719;SDS011;6424;48.520;11.228;2024-02-26T08:48:42;11.10;;;8.57;;
12719;SDS011;6424;48.520;11.228;2024-02-26T08:51:27;11.13;;;8.90;;
12719;SDS011;6424;48.520;11.228;2024-02-26T08:54:11;12.97;;;9.57;;
12719;SDS011;6424;48.520;11.228;2024-02-26T08:56:56;10.37;;;8.70;;
12719;SDS011;6424;48.520;11.228;2024-02-26T08:59:40;14.23;;;10.80;;
12719;SDS011;6424;48.520;11.228;2024-02-26T09:02:24;11.20;;;9.50;;
12719;SDS011;6424;48.520;11.228;2024-02-26T09:05:08;11.37;;;10.07;;
12719;SDS011;6424;48.520;11.228;2024-02-26T09:07:53;15.30;;;12.47;;
12719;SDS011;6424;48.520;11.228;2024-02-26T09:10:38;11.80;;;9.77;;
12719;SDS011;6424;48.520;11.228;2024-02-26T09:13:22;14.20;;;9.67;;
12719;SDS011;6424;48.520;11.228;2024-02-26T09:16:07;14.03;;;9.70;;
12719;SDS011;6424;48.520;11.228;2024-02-26T09:18:52;15.13;;;9.23;;
12719;SDS011;6424;48.520;11.228;2024-02-26T09:21:36;13.50;;;9.90;;
12719;SDS011;6424;48.520;11.228;2024-02-26T09:24:25;12.47;;;8.87;;
12719;SDS011;6424;48.520;11.228;2024-02-26T09:27:10;12.37;;;8.70;;
12719;SDS011;6424;48.520;11.228;2024-02-26T09:29:55;12.40;;;9.37;;
12719;SDS011;6424;48.520;11.228;2024-02-26T09:32:39;12.20;;;9.23;;
12719;SDS011;6424;48.520;11.228;2024-02-26T09:35:24;13.50;;;9.67;;
12719;SDS011;6424;48.520;11.228;2024-02-26T09:38:10;13.90;;;10.50;;
12719;SDS011;6424;48.520;11.228;2024-02-26T09:40:54;14.53;;;10.47;;
12719;SDS011;6424;48.520;11.228;2024-02-26T09:43:40;13.83;;;10.33;;
12719;SDS011;6424;48.520;11.228;2024-02-26T09:46:29;14.80;;;11.80;;
12719;SDS011;6424;48.520;11.228;2024-02-26T09:49:15;14.93;;;12.20;;
12719;SDS011;6424;48.520;11.228;2024-02-26T09:52:00;15.23;;;11.30;;
12719;SDS011;6424;48.520;11.228;2024-02-26T09:54:47;13.17;;;10.37;;
12719;SDS011;6424;48.520;11.228;2024-02-26T09:57:32;15.40;;;11.40;;
12719;SDS011;6424;48.520;11.228;2024-02-26T10:00:17;15.93;;;10.47;;
12719;SDS011;6424;48.520;11.228;2024-02-26T10:03:06;15.20;;;11.60;;
12719;SDS011;6424;48.520;11.228;2024-02-26T10:05:57;13.67;;;10.77;;
12719;SDS011;6424;48.520;11.228;2024-02-26T10:08:41;11.33;;;9.27;;
12719;SDS011;6424;48.520;11.228;2024-02-26T10:11:28;10.73;;;8.70;;
12719;SDS011;6424;48.520;11.228;2024-02-26T10:14:14;11.40;;;8.70;;
12719;SDS011;6424;48.520;11.228;2024-02-26T10:16:59;11.07;;;8.60;;
12719;SDS011;6424;48.520;11.228;2024-02-26T10:19:46;15.63;;;7.53;;
12719;SDS011;6424;48.520;11.228;2024-02-26T10:22:31;9.33;;;7.97;;
12719;SDS011;6424;48.520;11.228;2024-02-26T10:25:16;9.20;;;7.80;;
12719;SDS011;6424;48.520;11.228;2024-02-26T10:28:01;8.80;;;7.60;;
12719;SDS011;6424;48.520;11.228;2024-02-26T10:30:50;9.37;;;8.00;;
12719;SDS011;6424;48.520;11.228;2024-02-26T10:33:35;10.17;;;7.83;;
12719;SDS011;6424;48.520;11.228;2024-02-26T10:36:20;9.57;;;7.57;;
12719;SDS011;6424;48.520;11.228;2024-02-26T10:39:04;10.07;;;7.93;;
12719;SDS011;6424;48.520;11.228;2024-02-26T10:41:49;9.77;;;7.50;;
12719;SDS011;6424;48.520;11.228;2024-02-26T10:44:33;7.60;;;6.63;;
12719;SDS011;6424;48.520;11.228;2024-02-26T10:47:18;9.90;;;7.20;;
12719;SDS011;6424;48.520;11.228;2024-02-26T10:50:03;9.20;;;6.63;;
12719;SDS011;6424;48.520;11.228;2024-02-26T10:52:49;9.87;;;6.97;;
12719;SDS011;6424;48.520;11.228;2024-02-26T10:55:34;12.57;;;7.50;;
12719;SDS011;6424;48.520;11.228;2024-02-26T10:58:21;7.40;;;6.60;;
12719;SDS011;6424;48.520;11.228;2024-02-26T11:01:06;7.53;;;6.73;;
12719;SDS011;6424;48.520;11.228;2024-02-26T11:03:52;9.00;;;6.93;;
12719;SDS011;6424;48.520;11.228;2024-02-26T11:06:37;9.43;;;7.70;;
12719;SDS011;6424;48.520;11.228;2024-02-26T11:09:22;11.80;;;8.33;;
12719;SDS011;6424;48.520;11.228;2024-02-26T11:12:08;8.87;;;7.00;;
12719;SDS011;6424;48.520;11.228;2024-02-26T11:14:56;10.13;;;7.57;;
12719;SDS011;6424;48.520;11.228;2024-02-26T11:17:42;10.83;;;8.50;;
12719;SDS011;6424;48.520;11.228;2024-02-26T11:20:28;8.90;;;6.07;;
12719;SDS011;6424;48.520;11.228;2024-02-26T11:23:13;8.33;;;6.43;;
12719;SDS011;6424;48.520;11.228;2024-02-26T11:25:59;7.20;;;6.47;;
12719;SDS011;6424;48.520;11.228;2024-02-26T11:28:44;7.97;;;6.57;;
12719;SDS011;6424;48.520;11.228;2024-02-26T11:31:30;8.17;;;5.93;;
12719;SDS011;6424;48.520;11.228;2024-02-26T11:34:14;6.93;;;6.17;;
12719;SDS011;6424;48.520;11.228;2024-02-26T11:37:16;8.90;;;6.70;;
12719;SDS011;6424;48.520;11.228;2024-02-26T11:40:01;7.33;;;6.37;;
12719;SDS011;6424;48.520;11.228;2024-02-26T11:42:46;8.83;;;6.97;;
12719;SDS011;6424;48.520;11.228;2024-02-26T11:48:35;9.00;;;8.03;;
12719;SDS011;6424;48.520;11.228;2024-02-26T11:51:24;10.30;;;7.90;;
12719;SDS011;6424;48.520;11.228;2024-02-26T11:54:09;8.50;;;7.60;;
12719;SDS011;6424;48.520;11.228;2024-02-26T11:56:53;8.00;;;6.90;;
12719;SDS011;6424;48.520;11.228;2024-02-26T11:59:38;8.67;;;7.20;;
12719;SDS011;6424;48.520;11.228;2024-02-26T12:05:27;8.20;;;6.87;;
12719;SDS011;6424;48.520;11.228;2024-02-26T12:08:16;8.10;;;6.63;;
12719;SDS011;6424;48.520;11.228;2024-02-26T12:11:03;7.57;;;5.60;;
12719;SDS011;6424;48.520;11.228;2024-02-26T12:13:48;7.43;;;5.73;;
12719;SDS011;6424;48.520;11.228;2024-02-26T12:16:38;9.03;;;5.57;;
12719;SDS011;6424;48.520;11.228;2024-02-26T12:19:23;7.80;;;5.97;;
12719;SDS011;6424;48.520;11.228;2024-02-26T12:22:08;9.07;;;5.90;;
12719;SDS011;6424;48.520;11.228;2024-02-26T12:24:59;9.07;;;5.60;;
12719;SDS011;6424;48.520;11.228;2024-02-26T12:27:44;7.47;;;5.50;;
12719;SDS011;6424;48.520;11.228;2024-02-26T12:30:28;6.23;;;5.40;;
12719;SDS011;6424;48.520;11.228;2024-02-26T12:33:14;7.80;;;5.87;;
12719;SDS011;6424;48.520;11.228;2024-02-26T12:35:59;7.23;;;5.50;;
12719;SDS011;6424;48.520;11.228;2024-02-26T12:38:43;7.30;;;4.57;;
12719;SDS011;6424;48.520;11.228;2024-02-26T12:41:28;6.00;;;5.40;;
12719;SDS011;6424;48.520;11.228;2024-02-26T12:44:23;6.43;;;5.37;;
12719;SDS011;6424;48.520;11.228;2024-02-26T12:47:09;5.90;;;4.90;;
12719;SDS011;6424;48.520;11.228;2024-02-26T12:49:56;5.13;;;4.63;;
12719;SDS011;6424;48.520;11.228;2024-02-26T12:52:42;5.60;;;4.27;;
12719;SDS011;6424;48.520;11.228;2024-02-26T12:55:27;4.97;;;4.33;;
12719;SDS011;6424;48.520;11.228;2024-02-26T12:58:12;6.60;;;4.60;;
12719;SDS011;6424;48.520;11.228;2024-02-26T13:00:57;5.37;;;4.37;;
12719;SDS011;6424;48.520;11.228;2024-02-26T13:03:42;5.57;;;4.43;;
12719;SDS011;6424;48.520;11.228;2024-02-26T13:06:27;5.63;;;4.20;;
12719;SDS011;6424;48.520;11.228;2024-02-26T13:09:12;6.77;;;4.50;;
12719;SDS011;6424;48.520;11.228;2024-02-26T13:11:57;5.00;;;4.03;;
12719;SDS011;6424;48.520;11.228;2024-02-26T13:14:43;7.03;;;4.70;;
12719;SDS011;6424;48.520;11.228;2024-02-26T13:17:27;15.30;;;7.57;;
12719;SDS011;6424;48.520;11.228;2024-02-26T13:20:12;13.27;;;7.10;;
12719;SDS011;6424;48.520;11.228;2024-02-26T13:25:55;11.10;;;7.43;;
12719;SDS011;6424;48.520;11.228;2024-02-26T13:28:40;5.90;;;5.30;;
12719;SDS011;6424;48.520;11.228;2024-02-26T13:31:24;5.67;;;5.07;;
12719;SDS011;6424;48.520;11.228;2024-02-26T13:34:08;5.03;;;4.57;;
12719;SDS011;6424;48.520;11.228;2024-02-26T13:36:53;5.80;;;5.20;;
12719;SDS011;6424;48.520;11.228;2024-02-26T13:39:38;8.27;;;4.63;;
12719;SDS011;6424;48.520;11.228;2024-02-26T13:42:24;5.13;;;3.93;;
12719;SDS011;6424;48.520;11.228;2024-02-26T13:45:09;5.37;;;4.10;;
12719;SDS011;6424;48.520;11.228;2024-02-26T13:47:54;4.47;;;3.77;;
12719;SDS011;6424;48.520;11.228;2024-02-26T13:50:44;6.07;;;4.13;;
12719;SDS011;6424;48.520;11.228;2024-02-26T13:53:29;5.63;;;3.77;;
12719;SDS011;6424;48.520;11.228;2024-02-26T13:56:13;3.80;;;3.40;;
12719;SDS011;6424;48.520;11.228;2024-02-26T13:58:58;3.93;;;3.37;;
12719;SDS011;6424;48.520;11.228;2024-02-26T14:01:42;5.47;;;3.60;;
12719;SDS011;6424;48.520;11.228;2024-02-26T14:04:26;6.37;;;3.87;;
12719;SDS011;6424;48.520;11.228;2024-02-26T14:07:11;5.07;;;3.20;;
12719;SDS011;6424;48.520;11.228;2024-02-26T14:09:56;5.60;;;3.40;;
12719;SDS011;6424;48.520;11.228;2024-02-26T14:12:41;3.47;;;2.77;;
12719;SDS011;6424;48.520;11.228;2024-02-26T14:15:25;6.93;;;3.43;;
12719;SDS011;6424;48.520;11.228;2024-02-26T14:18:10;3.77;;;3.00;;
12719;SDS011;6424;48.520;11.228;2024-02-26T14:20:54;3.77;;;2.73;;
12719;SDS011;6424;48.520;11.228;2024-02-26T14:23:38;4.67;;;2.80;;
12719;SDS011;6424;48.520;11.228;2024-02-26T14:26:23;3.33;;;2.83;;
12719;SDS011;6424;48.520;11.228;2024-02-26T14:29:07;4.33;;;2.90;;
12719;SDS011;6424;48.520;11.228;2024-02-26T14:31:51;3.07;;;2.40;;
12719;SDS011;6424;48.520;11.228;2024-02-26T14:34:36;6.67;;;3.03;;
12719;SDS011;6424;48.520;11.228;2024-02-26T14:37:20;5.37;;;3.77;;
12719;SDS011;6424;48.520;11.228;2024-02-26T14:40:05;5.77;;;3.93;;
12719;SDS011;6424;48.520;11.228;2024-02-26T14:42:52;6.23;;;3.70;;
12719;SDS011;6424;48.520;11.228;2024-02-26T14:45:36;7.80;;;3.27;;
12719;SDS011;6424;48.520;11.228;2024-02-26T14:48:21;5.43;;;3.43;;
12719;SDS011;6424;48.520;11.228;2024-02-26T14:51:06;4.23;;;3.27;;
12719;SDS011;6424;48.520;11.228;2024-02-26T14:53:50;5.77;;;3.50;;
12719;SDS011;6424;48.520;11.228;2024-02-26T14:56:34;4.07;;;3.20;;
12719;SDS011;6424;48.520;11.228;2024-02-26T14:59:18;4.87;;;3.50;;
12719;SDS011;6424;48.520;11.228;2024-02-26T15:02:04;5.90;;;4.33;;
12719;SDS011;6424;48.520;11.228;2024-02-26T15:04:48;5.07;;;4.10;;
12719;SDS011;6424;48.520;11.228;2024-02-26T15:07:32;6.23;;;3.80;;
12719;SDS011;6424;48.520;11.228;2024-02-26T15:10:16;5.60;;;3.00;;
12719;SDS011;6424;48.520;11.228;2024-02-26T15:13:01;3.73;;;3.17;;
12719;SDS011;6424;48.520;11.228;2024-02-26T15:15:45;3.57;;;2.70;;
12719;SDS011;6424;48.520;11.228;2024-02-26T15:18:30;3.03;;;2.50;;
12719;SDS011;6424;48.520;11.228;2024-02-26T15:21:14;4.23;;;3.80;;
12719;SDS011;6424;48.520;11.228;2024-02-26T15:23:58;8.60;;;4.73;;
12719;SDS011;6424;48.520;11.228;2024-02-26T15:26:43;8.27;;;5.80;;
12719;SDS011;6424;48.520;11.228;2024-02-26T15:29:28;4.47;;;3.27;;
12719;SDS011;6424;48.520;11.228;2024-02-26T15:32:13;3.40;;;2.70;;
12719;SDS011;6424;48.520;11.228;2024-02-26T15:35:00;6.10;;;3.20;;
12719;SDS011;6424;48.520;11.228;2024-02-26T15:37:44;5.33;;;3.90;;
12719;SDS011;6424;48.520;11.228;2024-02-26T15:40:29;7.70;;;5.33;;
12719;SDS011;6424;48.520;11.228;2024-02-26T15:43:13;6.50;;;4.00;;
12719;SDS011;6424;48.520;11.228;2024-02-26T15:45:59;9.03;;;3.47;;
12719;SDS011;6424;48.520;11.228;2024-02-26T15:48:44;8.47;;;5.77;;
12719;SDS011;6424;48.520;11.228;2024-02-26T15:51:28;10.10;;;5.00;;
12719;SDS011;6424;48.520;11.228;2024-02-26T15:54:13;10.57;;;6.17;;
12719;SDS011;6424;48.520;11.228;2024-02-26T15:56:57;7.00;;;3.80;;
12719;SDS011;6424;48.520;11.228;2024-02-26T15:59:42;6.57;;;4.13;;
12719;SDS011;6424;48.520;11.228;2024-02-26T16:02:26;8.77;;;4.93;;
12719;SDS011;6424;48.520;11.228;2024-02-26T16:05:10;4.70;;;3.73;;
12719;SDS011;6424;48.520;11.228;2024-02-26T16:07:56;4.27;;;3.50;;
12719;SDS011;6424;48.520;11.228;2024-02-26T16:10:44;6.27;;;4.00;;
12719;SDS011;6424;48.520;11.228;2024-02-26T16:13:28;7.97;;;4.60;;
12719;SDS011;6424;48.520;11.228;2024-02-26T16:16:13;3.97;;;3.57;;
12719;SDS011;6424;48.520;11.228;2024-02-26T16:19:07;5.63;;;3.07;;
12719;SDS011;6424;48.520;11.228;2024-02-26T16:21:54;5.80;;;4.17;;
12719;SDS011;6424;48.520;11.228;2024-02-26T16:24:38;4.80;;;3.50;;